sensor_id;sensor_type;location;lat;lon;timestamp;P1;durP1;ratioP1;P2;durP2;ratioP2
32292;SDS011;43233;48.608;8.838;2023-08-20T00:00:26;10.20;;;7.80;;
32292;SDS011;43233;48.608;8.838;2023-08-20T00:02:56;14.90;;;8.30;;
32292;SDS011;43233;48.608;8.838;2023-08-20T00:05:26;8.93;;;8.03;;
32292;SDS011;43233;48.608;8.838;2023-08-20T00:07:51;8.57;;;7.70;;
32292;SDS011;43233;48.608;8.838;2023-08-20T00:10:17;7.60;;;6.90;;
32292;SDS011;43233;48.608;8.838;2023-08-20T00:12:43;11.80;;;8.07;;
32292;SDS011;43233;48.608;8.838;2023-08-20T00:15:08;11.23;;;8.60;;
32292;SDS011;43233;48.608;8.838;2023-08-20T00:17:35;10.83;;;7.87;;
32292;SDS011;43233;48.608;8.838;2023-08-20T00:20:03;12.00;;;8.60;;
32292;SDS011;43233;48.608;8.838;2023-08-20T00:22:35;8.73;;;7.37;;
32292;SDS011;43233;48.608;8.838;2023-08-20T00:25:01;9.70;;;7.90;;
32292;SDS011;43233;48.608;8.838;2023-08-20T00:27:31;15.53;;;9.00;;
32292;SDS011;43233;48.608;8.838;2023-08-20T00:29:57;9.30;;;7.83;;
32292;SDS011;43233;48.608;8.838;2023-08-20T00:32:23;9.13;;;7.37;;
32292;SDS011;43233;48.608;8.838;2023-08-20T00:34:49;9.43;;;7.53;;
32292;SDS011;43233;48.608;8.838;2023-08-20T00:37:15;11.67;;;8.30;;
32292;SDS011;43233;48.608;8.838;2023-08-20T00:39:40;7.97;;;7.27;;
32292;SDS011;43233;48.608;8.838;2023-08-20T00:42:06;10.70;;;7.70;;
32292;SDS011;43233;48.608;8.838;2023-08-20T00:44:33;13.47;;;7.70;;
32292;SDS011;43233;48.608;8.838;2023-08-20T00:46:59;8.53;;;7.70;;
32292;SDS011;43233;48.608;8.838;2023-08-20T00:49:29;14.13;;;7.77;;
32292;SDS011;43233;48.608;8.838;2023-08-20T00:51:56;11.23;;;7.90;;
32292;SDS011;43233;48.608;8.838;2023-08-20T00:54:23;8.53;;;7.67;;
32292;SDS011;43233;48.608;8.838;2023-08-20T00:56:49;15.03;;;9.30;;
32292;SDS011;43233;48.608;8.838;2023-08-20T00:59:16;11.83;;;8.23;;
32292;SDS011;43233;48.608;8.838;2023-08-20T01:01:42;9.30;;;8.30;;
32292;SDS011;43233;48.608;8.838;2023-08-20T01:04:08;10.83;;;8.70;;
32292;SDS011;43233;48.608;8.838;2023-08-20T01:09:21;10.80;;;7.80;;
32292;SDS011;43233;48.608;8.838;2023-08-20T01:12:08;24.87;;;10.00;;
32292;SDS011;43233;48.608;8.838;2023-08-20T01:14:35;10.40;;;9.10;;
32292;SDS011;43233;48.608;8.838;2023-08-20T01:17:01;13.93;;;8.70;;
32292;SDS011;43233;48.608;8.838;2023-08-20T01:19:27;10.10;;;8.63;;
32292;SDS011;43233;48.608;8.838;2023-08-20T01:27:38;8.80;;;7.90;;
32292;SDS011;43233;48.608;8.838;2023-08-20T01:30:27;9.60;;;8.30;;
32292;SDS011;43233;48.608;8.838;2023-08-20T01:32:54;8.97;;;7.77;;
32292;SDS011;43233;48.608;8.838;2023-08-20T01:35:20;12.57;;;9.77;;
32292;SDS011;43233;48.608;8.838;2023-08-20T01:37:50;8.97;;;8.07;;
32292;SDS011;43233;48.608;8.838;2023-08-20T01:40:16;13.33;;;9.50;;
32292;SDS011;43233;48.608;8.838;2023-08-20T01:42:42;11.30;;;8.83;;
32292;SDS011;43233;48.608;8.838;2023-08-20T01:45:07;13.73;;;9.83;;
32292;SDS011;43233;48.608;8.838;2023-08-20T01:47:33;11.60;;;9.13;;
32292;SDS011;43233;48.608;8.838;2023-08-20T01:49:59;11.00;;;8.33;;
32292;SDS011;43233;48.608;8.838;2023-08-20T01:52:25;11.60;;;9.13;;
32292;SDS011;43233;48.608;8.838;2023-08-20T01:54:51;10.13;;;8.63;;
32292;SDS011;43233;48.608;8.838;2023-08-20T01:57:18;10.57;;;9.50;;
32292;SDS011;43233;48.608;8.838;2023-08-20T01:59:44;11.17;;;9.90;;
32292;SDS011;43233;48.608;8.838;2023-08-20T02:02:10;11.00;;;9.03;;
32292;SDS011;43233;48.608;8.838;2023-08-20T02:04:36;9.63;;;8.73;;
32292;SDS011;43233;48.608;8.838;2023-08-20T02:07:01;9.33;;;8.43;;
32292;SDS011;43233;48.608;8.838;2023-08-20T02:09:27;9.80;;;8.90;;
32292;SDS011;43233;48.608;8.838;2023-08-20T02:11:53;10.37;;;8.70;;
32292;SDS011;43233;48.608;8.838;2023-08-20T02:14:18;11.73;;;8.30;;
32292;SDS011;43233;48.608;8.838;2023-08-20T02:16:45;11.50;;;9.83;;
32292;SDS011;43233;48.608;8.838;2023-08-20T02:19:11;10.60;;;9.53;;
32292;SDS011;43233;48.608;8.838;2023-08-20T02:21:37;17.00;;;8.90;;
32292;SDS011;43233;48.608;8.838;2023-08-20T02:24:03;11.53;;;8.33;;
32292;SDS011;43233;48.608;8.838;2023-08-20T02:26:29;10.17;;;9.17;;
32292;SDS011;43233;48.608;8.838;2023-08-20T02:28:54;9.73;;;8.80;;
32292;SDS011;43233;48.608;8.838;2023-08-20T02:31:20;12.67;;;9.03;;
32292;SDS011;43233;48.608;8.838;2023-08-20T02:33:46;13.20;;;8.47;;
32292;SDS011;43233;48.608;8.838;2023-08-20T02:36:12;10.63;;;9.53;;
32292;SDS011;43233;48.608;8.838;2023-08-20T02:38:37;14.10;;;9.73;;
32292;SDS011;43233;48.608;8.838;2023-08-20T02:41:03;11.83;;;10.50;;
32292;SDS011;43233;48.608;8.838;2023-08-20T02:43:29;10.67;;;8.30;;
32292;SDS011;43233;48.608;8.838;2023-08-20T02:45:54;11.27;;;10.07;;
32292;SDS011;43233;48.608;8.838;2023-08-20T02:48:20;9.70;;;8.10;;
32292;SDS011;43233;48.608;8.838;2023-08-20T02:50:46;11.67;;;7.90;;
32292;SDS011;43233;48.608;8.838;2023-08-20T02:53:11;14.90;;;9.23;;
32292;SDS011;43233;48.608;8.838;2023-08-20T02:55:37;14.33;;;9.40;;
32292;SDS011;43233;48.608;8.838;2023-08-20T02:58:03;13.80;;;9.60;;
32292;SDS011;43233;48.608;8.838;2023-08-20T03:00:29;11.10;;;9.70;;
32292;SDS011;43233;48.608;8.838;2023-08-20T03:02:55;14.87;;;9.70;;
32292;SDS011;43233;48.608;8.838;2023-08-20T03:05:22;13.90;;;10.63;;
32292;SDS011;43233;48.608;8.838;2023-08-20T03:07:47;14.77;;;10.50;;
32292;SDS011;43233;48.608;8.838;2023-08-20T03:10:14;14.97;;;10.40;;
32292;SDS011;43233;48.608;8.838;2023-08-20T03:12:39;10.87;;;9.77;;
32292;SDS011;43233;48.608;8.838;2023-08-20T03:15:06;11.20;;;9.43;;
32292;SDS011;43233;48.608;8.838;2023-08-20T03:17:32;11.97;;;9.50;;
32292;SDS011;43233;48.608;8.838;2023-08-20T03:19:58;10.67;;;9.17;;
32292;SDS011;43233;48.608;8.838;2023-08-20T03:22:25;12.83;;;10.53;;
32292;SDS011;43233;48.608;8.838;2023-08-20T03:24:52;11.67;;;10.47;;
32292;SDS011;43233;48.608;8.838;2023-08-20T03:27:18;10.67;;;9.47;;
32292;SDS011;43233;48.608;8.838;2023-08-20T03:29:44;9.63;;;8.70;;
32292;SDS011;43233;48.608;8.838;2023-08-20T03:32:11;13.10;;;10.97;;
32292;SDS011;43233;48.608;8.838;2023-08-20T03:34:36;16.53;;;10.20;;
32292;SDS011;43233;48.608;8.838;2023-08-20T03:37:02;13.13;;;10.27;;
32292;SDS011;43233;48.608;8.838;2023-08-20T03:39:28;15.47;;;10.53;;
32292;SDS011;43233;48.608;8.838;2023-08-20T03:41:54;12.70;;;10.03;;
32292;SDS011;43233;48.608;8.838;2023-08-20T03:44:20;12.47;;;10.13;;
32292;SDS011;43233;48.608;8.838;2023-08-20T03:46:46;9.83;;;8.83;;
32292;SDS011;43233;48.608;8.838;2023-08-20T03:49:11;13.17;;;10.60;;
32292;SDS011;43233;48.608;8.838;2023-08-20T03:51:37;16.50;;;10.10;;
32292;SDS011;43233;48.608;8.838;2023-08-20T03:54:03;10.47;;;9.47;;
32292;SDS011;43233;48.608;8.838;2023-08-20T03:56:29;12.17;;;9.63;;
32292;SDS011;43233;48.608;8.838;2023-08-20T03:58:54;10.20;;;9.10;;
32292;SDS011;43233;48.608;8.838;2023-08-20T04:01:20;12.73;;;10.90;;
32292;SDS011;43233;48.608;8.838;2023-08-20T04:03:47;10.80;;;9.77;;
32292;SDS011;43233;48.608;8.838;2023-08-20T04:06:13;13.50;;;10.40;;
32292;SDS011;43233;48.608;8.838;2023-08-20T04:08:39;11.13;;;8.80;;
32292;SDS011;43233;48.608;8.838;2023-08-20T04:11:04;20.50;;;9.17;;
32292;SDS011;43233;48.608;8.838;2023-08-20T04:13:30;12.57;;;9.90;;
32292;SDS011;43233;48.608;8.838;2023-08-20T04:15:56;11.13;;;9.77;;
32292;SDS011;43233;48.608;8.838;2023-08-20T04:18:22;10.40;;;9.30;;
32292;SDS011;43233;48.608;8.838;2023-08-20T04:20:51;10.10;;;9.20;;
32292;SDS011;43233;48.608;8.838;2023-08-20T04:23:17;18.60;;;10.47;;
32292;SDS011;43233;48.608;8.838;2023-08-20T04:25:44;11.73;;;10.17;;
32292;SDS011;43233;48.608;8.838;2023-08-20T04:28:10;12.70;;;10.20;;
32292;SDS011;43233;48.608;8.838;2023-08-20T04:30:36;12.13;;;9.80;;
32292;SDS011;43233;48.608;8.838;2023-08-20T04:33:02;11.50;;;9.60;;
32292;SDS011;43233;48.608;8.838;2023-08-20T04:35:28;11.90;;;8.60;;
32292;SDS011;43233;48.608;8.838;2023-08-20T04:37:54;12.50;;;8.77;;
32292;SDS011;43233;48.608;8.838;2023-08-20T04:40:19;11.00;;;8.70;;
32292;SDS011;43233;48.608;8.838;2023-08-20T04:42:45;8.87;;;7.97;;
32292;SDS011;43233;48.608;8.838;2023-08-20T04:45:11;11.00;;;9.40;;
32292;SDS011;43233;48.608;8.838;2023-08-20T04:47:37;10.07;;;9.07;;
32292;SDS011;43233;48.608;8.838;2023-08-20T04:50:03;10.93;;;9.53;;
32292;SDS011;43233;48.608;8.838;2023-08-20T04:52:32;13.63;;;9.30;;
32292;SDS011;43233;48.608;8.838;2023-08-20T04:54:58;14.33;;;9.30;;
32292;SDS011;43233;48.608;8.838;2023-08-20T04:57:24;18.10;;;10.20;;
32292;SDS011;43233;48.608;8.838;2023-08-20T04:59:50;14.60;;;10.10;;
32292;SDS011;43233;48.608;8.838;2023-08-20T05:02:15;9.60;;;8.73;;
32292;SDS011;43233;48.608;8.838;2023-08-20T05:04:41;10.77;;;9.70;;
32292;SDS011;43233;48.608;8.838;2023-08-20T05:07:07;10.57;;;9.50;;
32292;SDS011;43233;48.608;8.838;2023-08-20T05:09:33;11.43;;;8.70;;
32292;SDS011;43233;48.608;8.838;2023-08-20T05:11:59;11.40;;;9.53;;
32292;SDS011;43233;48.608;8.838;2023-08-20T05:14:25;10.50;;;9.50;;
32292;SDS011;43233;48.608;8.838;2023-08-20T05:16:50;10.77;;;9.77;;
32292;SDS011;43233;48.608;8.838;2023-08-20T05:19:16;14.63;;;9.10;;
32292;SDS011;43233;48.608;8.838;2023-08-20T05:21:41;11.27;;;9.30;;
32292;SDS011;43233;48.608;8.838;2023-08-20T05:24:07;14.83;;;9.40;;
32292;SDS011;43233;48.608;8.838;2023-08-20T05:26:34;11.33;;;9.33;;
32292;SDS011;43233;48.608;8.838;2023-08-20T05:29:00;9.80;;;8.90;;
32292;SDS011;43233;48.608;8.838;2023-08-20T05:31:28;11.37;;;9.50;;
32292;SDS011;43233;48.608;8.838;2023-08-20T05:33:54;9.97;;;8.83;;
32292;SDS011;43233;48.608;8.838;2023-08-20T05:36:20;11.33;;;8.40;;
32292;SDS011;43233;48.608;8.838;2023-08-20T05:38:45;10.10;;;8.27;;
32292;SDS011;43233;48.608;8.838;2023-08-20T05:41:11;9.67;;;8.70;;
32292;SDS011;43233;48.608;8.838;2023-08-20T05:43:37;12.87;;;8.27;;
32292;SDS011;43233;48.608;8.838;2023-08-20T05:46:02;8.83;;;7.93;;
32292;SDS011;43233;48.608;8.838;2023-08-20T05:48:28;14.83;;;9.77;;
32292;SDS011;43233;48.608;8.838;2023-08-20T05:50:54;8.83;;;7.90;;
32292;SDS011;43233;48.608;8.838;2023-08-20T05:53:21;11.17;;;9.60;;
32292;SDS011;43233;48.608;8.838;2023-08-20T05:55:47;9.67;;;8.67;;
32292;SDS011;43233;48.608;8.838;2023-08-20T05:58:14;10.50;;;8.97;;
32292;SDS011;43233;48.608;8.838;2023-08-20T06:00:39;9.43;;;8.53;;
32292;SDS011;43233;48.608;8.838;2023-08-20T06:03:06;7.77;;;7.07;;
32292;SDS011;43233;48.608;8.838;2023-08-20T06:05:32;12.53;;;8.30;;
32292;SDS011;43233;48.608;8.838;2023-08-20T06:07:59;9.47;;;8.60;;
32292;SDS011;43233;48.608;8.838;2023-08-20T06:10:25;13.43;;;8.97;;
32292;SDS011;43233;48.608;8.838;2023-08-20T06:12:51;11.60;;;9.40;;
32292;SDS011;43233;48.608;8.838;2023-08-20T06:15:17;9.73;;;8.80;;
32292;SDS011;43233;48.608;8.838;2023-08-20T06:17:43;12.33;;;10.07;;
32292;SDS011;43233;48.608;8.838;2023-08-20T06:20:08;13.00;;;8.97;;
32292;SDS011;43233;48.608;8.838;2023-08-20T06:22:36;11.70;;;9.40;;
32292;SDS011;43233;48.608;8.838;2023-08-20T06:25:03;10.40;;;8.97;;
32292;SDS011;43233;48.608;8.838;2023-08-20T06:27:29;12.53;;;9.17;;
32292;SDS011;43233;48.608;8.838;2023-08-20T06:29:55;11.43;;;8.73;;
32292;SDS011;43233;48.608;8.838;2023-08-20T06:32:21;10.40;;;8.63;;
32292;SDS011;43233;48.608;8.838;2023-08-20T06:34:48;12.33;;;8.83;;
32292;SDS011;43233;48.608;8.838;2023-08-20T06:37:14;12.43;;;8.93;;
32292;SDS011;43233;48.608;8.838;2023-08-20T06:39:40;15.73;;;9.37;;
32292;SDS011;43233;48.608;8.838;2023-08-20T06:42:05;10.60;;;9.17;;
32292;SDS011;43233;48.608;8.838;2023-08-20T06:44:31;13.10;;;9.60;;
32292;SDS011;43233;48.608;8.838;2023-08-20T06:46:57;15.43;;;8.40;;
32292;SDS011;43233;48.608;8.838;2023-08-20T06:49:23;13.30;;;9.10;;
32292;SDS011;43233;48.608;8.838;2023-08-20T06:51:51;11.47;;;10.27;;
32292;SDS011;43233;48.608;8.838;2023-08-20T06:54:16;10.87;;;9.33;;
32292;SDS011;43233;48.608;8.838;2023-08-20T06:56:42;10.03;;;8.77;;
32292;SDS011;43233;48.608;8.838;2023-08-20T06:59:08;12.23;;;9.70;;
32292;SDS011;43233;48.608;8.838;2023-08-20T07:01:35;9.23;;;8.33;;
32292;SDS011;43233;48.608;8.838;2023-08-20T07:04:00;10.83;;;8.30;;
32292;SDS011;43233;48.608;8.838;2023-08-20T07:06:26;10.27;;;8.67;;
32292;SDS011;43233;48.608;8.838;2023-08-20T07:08:52;11.43;;;9.00;;
32292;SDS011;43233;48.608;8.838;2023-08-20T07:11:18;11.90;;;8.70;;
32292;SDS011;43233;48.608;8.838;2023-08-20T07:13:44;13.07;;;8.60;;
32292;SDS011;43233;48.608;8.838;2023-08-20T07:16:10;12.53;;;10.07;;
32292;SDS011;43233;48.608;8.838;2023-08-20T07:18:35;13.53;;;8.70;;
32292;SDS011;43233;48.608;8.838;2023-08-20T07:21:01;11.17;;;8.90;;
32292;SDS011;43233;48.608;8.838;2023-08-20T07:23:28;12.37;;;8.87;;
32292;SDS011;43233;48.608;8.838;2023-08-20T07:26:03;10.43;;;9.33;;
32292;SDS011;43233;48.608;8.838;2023-08-20T07:28:32;10.17;;;8.90;;
32292;SDS011;43233;48.608;8.838;2023-08-20T07:31:17;10.10;;;8.47;;
32292;SDS011;43233;48.608;8.838;2023-08-20T07:33:45;14.80;;;8.70;;
32292;SDS011;43233;48.608;8.838;2023-08-20T07:36:13;16.80;;;8.40;;
32292;SDS011;43233;48.608;8.838;2023-08-20T07:38:42;7.93;;;7.17;;
32292;SDS011;43233;48.608;8.838;2023-08-20T07:41:08;9.80;;;7.43;;
32292;SDS011;43233;48.608;8.838;2023-08-20T07:43:36;10.07;;;7.67;;
32292;SDS011;43233;48.608;8.838;2023-08-20T07:46:07;9.73;;;8.10;;
32292;SDS011;43233;48.608;8.838;2023-08-20T07:48:34;7.60;;;6.90;;
32292;SDS011;43233;48.608;8.838;2023-08-20T07:51:01;6.73;;;6.03;;
32292;SDS011;43233;48.608;8.838;2023-08-20T07:53:27;9.20;;;7.50;;
32292;SDS011;43233;48.608;8.838;2023-08-20T07:55:54;7.80;;;7.10;;
32292;SDS011;43233;48.608;8.838;2023-08-20T07:58:20;8.83;;;7.93;;
32292;SDS011;43233;48.608;8.838;2023-08-20T08:00:46;7.67;;;6.50;;
32292;SDS011;43233;48.608;8.838;2023-08-20T08:03:11;8.53;;;6.80;;
32292;SDS011;43233;48.608;8.838;2023-08-20T08:05:40;10.53;;;7.27;;
32292;SDS011;43233;48.608;8.838;2023-08-20T08:08:06;7.93;;;6.40;;
32292;SDS011;43233;48.608;8.838;2023-08-20T08:10:31;6.87;;;6.17;;
32292;SDS011;43233;48.608;8.838;2023-08-20T08:12:57;7.77;;;7.07;;
32292;SDS011;43233;48.608;8.838;2023-08-20T08:15:23;7.40;;;6.73;;
32292;SDS011;43233;48.608;8.838;2023-08-20T08:17:49;6.87;;;5.93;;
32292;SDS011;43233;48.608;8.838;2023-08-20T08:20:14;7.20;;;6.60;;
32292;SDS011;43233;48.608;8.838;2023-08-20T08:22:40;8.47;;;6.13;;
32292;SDS011;43233;48.608;8.838;2023-08-20T08:25:05;10.33;;;7.20;;
32292;SDS011;43233;48.608;8.838;2023-08-20T08:27:31;7.13;;;6.33;;
32292;SDS011;43233;48.608;8.838;2023-08-20T08:29:57;10.50;;;7.50;;
32292;SDS011;43233;48.608;8.838;2023-08-20T08:32:23;7.53;;;6.83;;
32292;SDS011;43233;48.608;8.838;2023-08-20T08:34:49;7.63;;;6.60;;
32292;SDS011;43233;48.608;8.838;2023-08-20T08:37:15;13.67;;;6.37;;
32292;SDS011;43233;48.608;8.838;2023-08-20T08:39:41;7.60;;;6.80;;
32292;SDS011;43233;48.608;8.838;2023-08-20T08:42:06;7.93;;;7.17;;
32292;SDS011;43233;48.608;8.838;2023-08-20T08:44:36;7.80;;;6.20;;
32292;SDS011;43233;48.608;8.838;2023-08-20T08:47:02;7.47;;;6.70;;
32292;SDS011;43233;48.608;8.838;2023-08-20T08:49:32;7.70;;;6.50;;
32292;SDS011;43233;48.608;8.838;2023-08-20T08:51:59;7.40;;;6.70;;
32292;SDS011;43233;48.608;8.838;2023-08-20T08:54:26;7.53;;;6.77;;
32292;SDS011;43233;48.608;8.838;2023-08-20T08:56:52;9.37;;;7.03;;
32292;SDS011;43233;48.608;8.838;2023-08-20T08:59:18;9.17;;;6.40;;
32292;SDS011;43233;48.608;8.838;2023-08-20T09:01:44;8.00;;;6.50;;
32292;SDS011;43233;48.608;8.838;2023-08-20T09:04:10;6.77;;;6.17;;
32292;SDS011;43233;48.608;8.838;2023-08-20T09:06:51;9.60;;;6.60;;
32292;SDS011;43233;48.608;8.838;2023-08-20T09:09:20;6.80;;;6.03;;
32292;SDS011;43233;48.608;8.838;2023-08-20T09:11:46;5.97;;;5.47;;
32292;SDS011;43233;48.608;8.838;2023-08-20T09:14:31;6.10;;;5.57;;
32292;SDS011;43233;48.608;8.838;2023-08-20T09:17:00;7.83;;;5.77;;
32292;SDS011;43233;48.608;8.838;2023-08-20T09:19:30;6.23;;;4.90;;
32292;SDS011;43233;48.608;8.838;2023-08-20T09:22:07;5.87;;;5.20;;
32292;SDS011;43233;48.608;8.838;2023-08-20T09:24:33;6.00;;;5.40;;
32292;SDS011;43233;48.608;8.838;2023-08-20T09:27:04;6.80;;;6.10;;
32292;SDS011;43233;48.608;8.838;2023-08-20T09:29:36;10.63;;;5.80;;
32292;SDS011;43233;48.608;8.838;2023-08-20T09:32:13;6.23;;;5.23;;
32292;SDS011;43233;48.608;8.838;2023-08-20T09:34:40;6.20;;;5.60;;
32292;SDS011;43233;48.608;8.838;2023-08-20T09:37:09;8.00;;;5.40;;
32292;SDS011;43233;48.608;8.838;2023-08-20T09:39:37;5.50;;;5.10;;
32292;SDS011;43233;48.608;8.838;2023-08-20T09:42:03;8.03;;;5.50;;
32292;SDS011;43233;48.608;8.838;2023-08-20T09:44:34;13.30;;;6.70;;
32292;SDS011;43233;48.608;8.838;2023-08-20T09:47:10;8.27;;;4.93;;
32292;SDS011;43233;48.608;8.838;2023-08-20T09:49:38;5.60;;;4.80;;
32292;SDS011;43233;48.608;8.838;2023-08-20T09:52:05;4.70;;;4.30;;
32292;SDS011;43233;48.608;8.838;2023-08-20T09:54:50;7.50;;;5.57;;
32292;SDS011;43233;48.608;8.838;2023-08-20T09:57:39;11.60;;;5.43;;
32292;SDS011;43233;48.608;8.838;2023-08-20T10:00:06;8.23;;;5.50;;
32292;SDS011;43233;48.608;8.838;2023-08-20T10:02:37;6.57;;;5.83;;
32292;SDS011;43233;48.608;8.838;2023-08-20T10:05:05;11.37;;;5.47;;
32292;SDS011;43233;48.608;8.838;2023-08-20T10:07:31;5.87;;;5.10;;
32292;SDS011;43233;48.608;8.838;2023-08-20T10:10:01;6.17;;;5.57;;
32292;SDS011;43233;48.608;8.838;2023-08-20T10:12:28;8.03;;;5.80;;
32292;SDS011;43233;48.608;8.838;2023-08-20T10:14:58;6.17;;;5.60;;
32292;SDS011;43233;48.608;8.838;2023-08-20T10:17:25;6.33;;;5.30;;
32292;SDS011;43233;48.608;8.838;2023-08-20T10:19:55;13.10;;;5.37;;
32292;SDS011;43233;48.608;8.838;2023-08-20T10:22:31;10.23;;;5.70;;
32292;SDS011;43233;48.608;8.838;2023-08-20T10:24:58;6.40;;;5.90;;
32292;SDS011;43233;48.608;8.838;2023-08-20T10:27:28;5.90;;;5.37;;
32292;SDS011;43233;48.608;8.838;2023-08-20T10:29:58;9.53;;;5.80;;
32292;SDS011;43233;48.608;8.838;2023-08-20T10:35:17;5.70;;;5.20;;
32292;SDS011;43233;48.608;8.838;2023-08-20T10:40:49;5.43;;;4.70;;
32292;SDS011;43233;48.608;8.838;2023-08-20T10:46:05;8.80;;;5.20;;
32292;SDS011;43233;48.608;8.838;2023-08-20T10:48:35;6.30;;;5.30;;
32292;SDS011;43233;48.608;8.838;2023-08-20T10:51:45;6.10;;;4.30;;
32292;SDS011;43233;48.608;8.838;2023-08-20T10:56:26;6.83;;;5.30;;
32292;SDS011;43233;48.608;8.838;2023-08-20T10:59:17;5.03;;;4.53;;
32292;SDS011;43233;48.608;8.838;2023-08-20T11:01:48;7.93;;;5.00;;
32292;SDS011;43233;48.608;8.838;2023-08-20T11:04:16;5.60;;;4.83;;
32292;SDS011;43233;48.608;8.838;2023-08-20T11:06:43;7.03;;;5.10;;
32292;SDS011;43233;48.608;8.838;2023-08-20T11:09:12;5.40;;;4.90;;
32292;SDS011;43233;48.608;8.838;2023-08-20T11:11:41;5.27;;;4.77;;
32292;SDS011;43233;48.608;8.838;2023-08-20T11:14:09;10.67;;;4.60;;
32292;SDS011;43233;48.608;8.838;2023-08-20T11:16:40;5.83;;;4.83;;
32292;SDS011;43233;48.608;8.838;2023-08-20T11:19:07;6.30;;;4.47;;
32292;SDS011;43233;48.608;8.838;2023-08-20T11:21:40;5.60;;;5.10;;
32292;SDS011;43233;48.608;8.838;2023-08-20T11:24:07;5.60;;;5.20;;
32292;SDS011;43233;48.608;8.838;2023-08-20T11:26:33;4.80;;;4.30;;
32292;SDS011;43233;48.608;8.838;2023-08-20T11:29:00;5.20;;;4.70;;
32292;SDS011;43233;48.608;8.838;2023-08-20T11:31:30;5.00;;;4.50;;
32292;SDS011;43233;48.608;8.838;2023-08-20T11:33:56;6.57;;;4.80;;
32292;SDS011;43233;48.608;8.838;2023-08-20T11:36:22;5.70;;;5.10;;
32292;SDS011;43233;48.608;8.838;2023-08-20T11:38:52;5.37;;;4.87;;
32292;SDS011;43233;48.608;8.838;2023-08-20T11:41:18;8.00;;;4.20;;
32292;SDS011;43233;48.608;8.838;2023-08-20T11:43:45;4.73;;;4.33;;
32292;SDS011;43233;48.608;8.838;2023-08-20T11:46:13;5.00;;;4.50;;
32292;SDS011;43233;48.608;8.838;2023-08-20T11:51:34;5.30;;;4.80;;
32292;SDS011;43233;48.608;8.838;2023-08-20T11:54:08;11.27;;;4.60;;
32292;SDS011;43233;48.608;8.838;2023-08-20T11:56:36;5.60;;;5.10;;
32292;SDS011;43233;48.608;8.838;2023-08-20T11:59:10;8.70;;;5.13;;
32292;SDS011;43233;48.608;8.838;2023-08-20T12:01:36;7.70;;;5.17;;
32292;SDS011;43233;48.608;8.838;2023-08-20T12:04:09;4.43;;;4.10;;
32292;SDS011;43233;48.608;8.838;2023-08-20T12:06:36;6.17;;;4.60;;
32292;SDS011;43233;48.608;8.838;2023-08-20T12:09:18;10.47;;;5.07;;
32292;SDS011;43233;48.608;8.838;2023-08-20T12:11:52;5.03;;;4.63;;
32292;SDS011;43233;48.608;8.838;2023-08-20T12:14:21;6.23;;;4.30;;
32292;SDS011;43233;48.608;8.838;2023-08-20T12:16:47;5.70;;;5.10;;
32292;SDS011;43233;48.608;8.838;2023-08-20T12:19:13;5.13;;;4.60;;
32292;SDS011;43233;48.608;8.838;2023-08-20T12:21:39;12.20;;;4.77;;
32292;SDS011;43233;48.608;8.838;2023-08-20T12:24:08;7.80;;;4.70;;
32292;SDS011;43233;48.608;8.838;2023-08-20T12:26:35;5.00;;;4.50;;
32292;SDS011;43233;48.608;8.838;2023-08-20T12:29:01;4.83;;;4.40;;
32292;SDS011;43233;48.608;8.838;2023-08-20T12:31:27;6.00;;;4.60;;
32292;SDS011;43233;48.608;8.838;2023-08-20T12:33:53;16.30;;;5.80;;
32292;SDS011;43233;48.608;8.838;2023-08-20T12:36:19;9.10;;;5.20;;
32292;SDS011;43233;48.608;8.838;2023-08-20T12:38:45;7.77;;;4.57;;
32292;SDS011;43233;48.608;8.838;2023-08-20T12:41:10;10.13;;;5.10;;
32292;SDS011;43233;48.608;8.838;2023-08-20T12:43:36;6.00;;;4.43;;
32292;SDS011;43233;48.608;8.838;2023-08-20T12:46:02;7.97;;;4.70;;
32292;SDS011;43233;48.608;8.838;2023-08-20T12:48:28;6.60;;;4.20;;
32292;SDS011;43233;48.608;8.838;2023-08-20T12:50:54;8.20;;;4.97;;
32292;SDS011;43233;48.608;8.838;2023-08-20T12:53:20;6.50;;;4.77;;
32292;SDS011;43233;48.608;8.838;2023-08-20T12:55:46;6.70;;;4.50;;
32292;SDS011;43233;48.608;8.838;2023-08-20T12:58:12;5.50;;;3.97;;
32292;SDS011;43233;48.608;8.838;2023-08-20T13:00:38;6.87;;;4.63;;
32292;SDS011;43233;48.608;8.838;2023-08-20T13:03:04;4.50;;;3.80;;
32292;SDS011;43233;48.608;8.838;2023-08-20T13:05:30;5.13;;;4.53;;
32292;SDS011;43233;48.608;8.838;2023-08-20T13:07:56;6.73;;;4.67;;
32292;SDS011;43233;48.608;8.838;2023-08-20T13:10:22;8.23;;;4.53;;
32292;SDS011;43233;48.608;8.838;2023-08-20T13:12:50;6.67;;;4.43;;
32292;SDS011;43233;48.608;8.838;2023-08-20T13:15:18;6.53;;;4.50;;
32292;SDS011;43233;48.608;8.838;2023-08-20T13:17:46;7.23;;;4.20;;
32292;SDS011;43233;48.608;8.838;2023-08-20T13:20:12;8.07;;;3.83;;
32292;SDS011;43233;48.608;8.838;2023-08-20T13:22:39;7.63;;;4.57;;
32292;SDS011;43233;48.608;8.838;2023-08-20T13:25:05;15.50;;;4.73;;
32292;SDS011;43233;48.608;8.838;2023-08-20T13:27:31;6.57;;;4.30;;
32292;SDS011;43233;48.608;8.838;2023-08-20T13:29:57;9.07;;;4.90;;
32292;SDS011;43233;48.608;8.838;2023-08-20T13:32:22;9.60;;;4.30;;
32292;SDS011;43233;48.608;8.838;2023-08-20T13:34:51;11.23;;;3.97;;
32292;SDS011;43233;48.608;8.838;2023-08-20T13:37:17;6.40;;;4.03;;
32292;SDS011;43233;48.608;8.838;2023-08-20T13:39:43;7.10;;;4.33;;
32292;SDS011;43233;48.608;8.838;2023-08-20T13:42:12;9.40;;;4.30;;
32292;SDS011;43233;48.608;8.838;2023-08-20T13:44:37;6.53;;;4.30;;
32292;SDS011;43233;48.608;8.838;2023-08-20T13:47:03;10.80;;;4.80;;
32292;SDS011;43233;48.608;8.838;2023-08-20T13:49:29;4.00;;;3.70;;
32292;SDS011;43233;48.608;8.838;2023-08-20T13:51:54;15.60;;;4.20;;
32292;SDS011;43233;48.608;8.838;2023-08-20T13:54:20;5.30;;;4.00;;
32292;SDS011;43233;48.608;8.838;2023-08-20T13:56:46;5.43;;;4.70;;
32292;SDS011;43233;48.608;8.838;2023-08-20T13:59:11;8.30;;;4.07;;
32292;SDS011;43233;48.608;8.838;2023-08-20T14:01:37;12.43;;;4.70;;
32292;SDS011;43233;48.608;8.838;2023-08-20T14:04:03;8.17;;;4.13;;
32292;SDS011;43233;48.608;8.838;2023-08-20T14:06:29;7.30;;;4.37;;
32292;SDS011;43233;48.608;8.838;2023-08-20T14:08:55;7.77;;;4.10;;
32292;SDS011;43233;48.608;8.838;2023-08-20T14:11:23;7.87;;;4.50;;
32292;SDS011;43233;48.608;8.838;2023-08-20T14:13:49;6.70;;;4.67;;
32292;SDS011;43233;48.608;8.838;2023-08-20T14:16:15;5.00;;;3.90;;
32292;SDS011;43233;48.608;8.838;2023-08-20T14:18:41;5.87;;;4.87;;
32292;SDS011;43233;48.608;8.838;2023-08-20T14:21:06;8.97;;;4.80;;
32292;SDS011;43233;48.608;8.838;2023-08-20T14:23:32;6.10;;;4.90;;
32292;SDS011;43233;48.608;8.838;2023-08-20T14:26:00;4.60;;;4.20;;
32292;SDS011;43233;48.608;8.838;2023-08-20T14:28:26;4.70;;;4.20;;
32292;SDS011;43233;48.608;8.838;2023-08-20T14:30:52;16.73;;;7.27;;
32292;SDS011;43233;48.608;8.838;2023-08-20T14:33:19;6.87;;;5.10;;
32292;SDS011;43233;48.608;8.838;2023-08-20T14:35:45;5.30;;;4.80;;
32292;SDS011;43233;48.608;8.838;2023-08-20T14:38:11;7.47;;;5.10;;
32292;SDS011;43233;48.608;8.838;2023-08-20T14:40:39;4.53;;;4.10;;
32292;SDS011;43233;48.608;8.838;2023-08-20T14:43:05;8.13;;;4.03;;
32292;SDS011;43233;48.608;8.838;2023-08-20T14:45:34;5.60;;;4.30;;
32292;SDS011;43233;48.608;8.838;2023-08-20T14:48:00;5.63;;;4.43;;
32292;SDS011;43233;48.608;8.838;2023-08-20T14:50:26;4.37;;;3.97;;
32292;SDS011;43233;48.608;8.838;2023-08-20T14:52:52;4.90;;;4.37;;
32292;SDS011;43233;48.608;8.838;2023-08-20T14:55:18;7.90;;;4.53;;
32292;SDS011;43233;48.608;8.838;2023-08-20T14:57:44;4.93;;;4.07;;
32292;SDS011;43233;48.608;8.838;2023-08-20T15:00:10;12.93;;;4.90;;
32292;SDS011;43233;48.608;8.838;2023-08-20T15:02:39;5.33;;;4.80;;